Time;durP1;ratioP1;P1;durP2;ratioP2;P2;SDS_P1;SDS_P2;PMS_P1;PMS_P2;Temp;Humidity;BMP_temperature;BMP_pressure;BME280_temperature;BME280_humidity;BME280_pressure;Samples;Min_cycle;Max_cycle;Signal;HPM_P1;HPM_P2
2022/01/01 00:02:52;;;;;;;14.83;9.30;;;;;;;11.11;100.00;100339.41;3484771;83;98826;-91
2022/01/01 00:07:53;;;;;;;11.00;5.40;;;;;;;11.08;100.00;100341.56;3624377;80;99268;-90
2022/01/01 00:12:54;;;;;;;11.40;5.23;;;;;;;11.04;100.00;100353.13;3595807;80;99581;-91
2022/01/01 00:17:57;;;;;;;11.37;6.17;;;;;;;11.04;100.00;100351.75;3629125;80;99192;-94
2022/01/01 00:22:58;;;;;;;10.20;5.47;;;;;;;11.01;100.00;100362.14;3482213;83;99194;-90
2022/01/01 00:27:59;;;;;;;11.47;6.33;;;;;;;11.01;100.00;100368.25;3548238;81;33202;-92
2022/01/01 00:33:00;;;;;;;12.50;6.93;;;;;;;10.99;100.00;100376.89;3533108;82;99053;-92
2022/01/01 00:38:00;;;;;;;15.40;7.07;;;;;;;11.00;100.00;100380.41;3529169;82;99026;-92
2022/01/01 00:43:02;;;;;;;12.30;7.03;;;;;;;11.00;100.00;100388.67;3530933;82;99345;-90
2022/01/01 00:48:03;;;;;;;14.47;7.67;;;;;;;11.00;100.00;100389.48;3516151;81;99679;-91
2022/01/01 00:53:04;;;;;;;12.83;6.63;;;;;;;11.00;100.00;100395.56;3529697;82;99132;-90
2022/01/01 00:58:05;;;;;;;13.57;6.57;;;;;;;10.99;100.00;100404.42;3516522;82;99708;-90
2022/01/01 01:03:15;;;;;;;9.83;4.80;;;;;;;10.99;100.00;100407.17;3526036;82;99123;-90
2022/01/01 01:08:17;;;;;;;11.30;5.73;;;;;;;10.98;100.00;100415.81;3526219;81;99204;-92
2022/01/01 01:13:20;;;;;;;13.00;6.60;;;;;;;10.98;100.00;100410.30;3534218;82;99238;-90
2022/01/01 01:18:21;;;;;;;10.00;4.90;;;;;;;10.97;100.00;100426.63;3517920;81;99566;-90
2022/01/01 01:23:21;;;;;;;10.67;5.20;;;;;;;10.95;100.00;100433.88;3528316;80;99857;-94
2022/01/01 01:28:22;;;;;;;11.00;5.10;;;;;;;10.95;100.00;100427.00;3520467;81;99322;-93
2022/01/01 01:33:23;;;;;;;8.63;3.97;;;;;;;10.93;100.00;100428.55;3520466;82;98963;-93
2022/01/01 01:38:26;;;;;;;8.65;3.75;;;;;;;10.93;100.00;100434.05;3511022;82;98837;-93
2022/01/01 01:43:27;;;;;;;16.37;8.23;;;;;;;10.94;100.00;100434.26;3512713;81;98217;-92
2022/01/01 01:48:28;;;;;;;8.87;4.30;;;;;;;10.92;100.00;100432.48;3503052;81;99340;-92
2022/01/01 01:53:30;;;;;;;8.90;4.17;;;;;;;10.92;100.00;100445.67;3495359;82;99098;-92
2022/01/01 01:58:31;;;;;;;8.87;4.33;;;;;;;10.96;100.00;100442.95;3582755;81;99641;-92
2022/01/01 02:03:32;;;;;;;10.80;4.90;;;;;;;10.93;100.00;100461.02;3590470;81;33639;-94
2022/01/01 02:08:33;;;;;;;9.43;4.17;;;;;;;10.91;100.00;100459.20;3578653;79;99032;-93
2022/01/01 02:14:01;;;;;;;12.17;5.10;;;;;;;10.91;100.00;100478.48;3590520;81;99057;-94
2022/01/01 02:18:44;;;;;;;6.80;3.37;;;;;;;10.91;100.00;100476.33;3571950;80;99300;-92
2022/01/01 02:23:46;;;;;;;8.40;3.57;;;;;;;10.91;100.00;100494.23;3591799;80;99036;-92
2022/01/01 02:28:48;;;;;;;8.37;4.20;;;;;;;10.90;100.00;100487.14;3564379;81;99012;-94
2022/01/01 02:33:50;;;;;;;7.80;3.63;;;;;;;10.92;100.00;100499.94;3564849;81;25748;-93
2022/01/01 02:38:53;;;;;;;10.97;3.47;;;;;;;10.94;100.00;100501.72;3526730;80;99753;-93
2022/01/01 02:43:54;;;;;;;6.70;3.17;;;;;;;10.95;100.00;100499.97;3544874;81;99098;-93
2022/01/01 02:48:55;;;;;;;9.47;3.77;;;;;;;10.97;100.00;100507.86;3573923;79;99426;-93
2022/01/01 02:53:57;;;;;;;7.53;3.10;;;;;;;10.99;100.00;100515.95;3592566;81;99432;-94
2022/01/01 02:58:58;;;;;;;8.73;3.77;;;;;;;11.00;100.00;100513.41;3585561;81;99475;-93
2022/01/01 03:03:59;;;;;;;7.73;3.00;;;;;;;11.04;100.00;100524.45;3606056;81;33187;-94
2022/01/01 03:09:00;;;;;;;5.83;2.60;;;;;;;11.05;100.00;100526.03;3581018;80;98936;-94
2022/01/01 03:14:01;;;;;;;6.63;2.80;;;;;;;11.04;100.00;100528.58;3586405;81;98891;-94
2022/01/01 03:19:02;;;;;;;7.07;2.33;;;;;;;11.04;100.00;100528.02;3578876;81;98687;-94
2022/01/01 03:24:04;;;;;;;8.87;3.03;;;;;;;11.06;100.00;100531.17;3593707;79;99006;-95
2022/01/01 03:29:05;;;;;;;6.77;2.90;;;;;;;11.08;100.00;100526.09;3591005;81;99136;-96
2022/01/01 03:34:05;;;;;;;6.73;2.23;;;;;;;11.07;100.00;100536.88;3578089;79;33447;-96
2022/01/01 03:39:07;;;;;;;5.33;2.20;;;;;;;11.06;100.00;100534.53;3618109;79;98662;-94
2022/01/01 03:44:08;;;;;;;6.27;1.87;;;;;;;11.05;100.00;100530.97;3640007;79;99185;-96
2022/01/01 03:49:09;;;;;;;6.50;2.87;;;;;;;11.03;100.00;100536.64;3608239;80;99401;-95
2022/01/01 03:54:13;;;;;;;6.50;2.63;;;;;;;11.02;100.00;100543.33;3602627;79;99441;-95
2022/01/01 03:59:13;;;;;;;5.43;2.50;;;;;;;11.01;100.00;100543.90;3635435;79;99593;-92
2022/01/01 04:04:14;;;;;;;5.87;2.20;;;;;;;10.98;100.00;100550.17;3641002;79;33089;-96
2022/01/01 04:09:15;;;;;;;5.43;2.53;;;;;;;10.98;100.00;100549.37;3625046;79;98930;-95
2022/01/01 04:14:16;;;;;;;5.93;2.63;;;;;;;10.99;100.00;100553.70;3634096;79;98049;-96
2022/01/01 04:19:18;;;;;;;7.63;3.07;;;;;;;10.99;100.00;100564.15;3628065;79;99015;-95
2022/01/01 04:24:19;;;;;;;10.37;4.20;;;;;;;10.98;100.00;100574.96;3640280;79;98144;-96
2022/01/01 04:29:19;;;;;;;9.70;4.67;;;;;;;10.98;100.00;100574.96;3630299;79;99209;-96
2022/01/01 04:34:21;;;;;;;8.47;3.77;;;;;;;10.98;100.00;100580.47;3641711;79;33196;-92
2022/01/01 04:39:22;;;;;;;9.77;3.73;;;;;;;10.98;100.00;100578.29;3604680;80;98681;-96
2022/01/01 04:44:23;;;;;;;7.10;3.90;;;;;;;10.95;100.00;100586.72;3591505;79;98899;-96
2022/01/01 04:49:24;;;;;;;11.03;4.40;;;;;;;10.94;100.00;100582.38;3580988;79;99080;-94
2022/01/01 04:54:25;;;;;;;7.90;3.50;;;;;;;10.94;100.00;100592.02;3592717;81;98913;-95
2022/01/01 04:59:26;;;;;;;6.87;3.00;;;;;;;10.95;100.00;100586.72;3587841;80;99368;-93
2022/01/01 05:04:27;;;;;;;7.40;3.53;;;;;;;10.96;100.00;100588.89;3589731;81;31687;-93
2022/01/01 05:09:29;;;;;;;8.70;3.10;;;;;;;10.96;100.00;100597.16;3580869;81;99035;-94
2022/01/01 05:14:31;;;;;;;9.17;3.67;;;;;;;10.94;100.00;100596.72;3594590;81;98968;-94
2022/01/01 05:19:32;;;;;;;6.35;2.90;;;;;;;10.94;100.00;100604.98;3586620;80;99124;-92
2022/01/01 05:24:33;;;;;;;6.33;2.90;;;;;;;10.95;100.00;100610.13;3594567;80;99024;-93
2022/01/01 05:29:33;;;;;;;7.93;3.00;;;;;;;10.94;100.00;100614.62;3576763;81;99431;-91
2022/01/01 05:34:34;;;;;;;9.37;3.20;;;;;;;10.91;100.00;100621.66;3591615;81;99308;-92
2022/01/01 05:39:35;;;;;;;7.60;3.00;;;;;;;10.92;100.00;100630.16;3581253;80;98619;-92
2022/01/01 05:44:36;;;;;;;10.00;3.33;;;;;;;10.93;100.00;100635.88;3579024;81;101265;-93
2022/01/01 05:49:37;;;;;;;7.60;3.20;;;;;;;10.93;100.00;100635.06;3553773;80;99381;-92
2022/01/01 05:54:38;;;;;;;8.83;3.70;;;;;;;10.90;100.00;100628.34;3563549;80;99095;-92
2022/01/01 05:59:41;;;;;;;8.57;3.87;;;;;;;10.89;100.00;100639.16;3580361;80;99798;-91
2022/01/01 06:04:42;;;;;;;8.53;3.70;;;;;;;10.88;100.00;100647.78;3583574;81;99109;-94
2022/01/01 06:09:45;;;;;;;11.87;4.70;;;;;;;10.91;100.00;100651.18;3579750;80;98666;-94
2022/01/01 06:14:45;;;;;;;12.55;6.35;;;;;;;10.93;100.00;100655.72;3581257;81;99013;-95
2022/01/01 06:19:46;;;;;;;11.33;4.97;;;;;;;10.93;100.00;100663.98;3571233;81;99475;-93
2022/01/01 06:24:47;;;;;;;9.67;4.07;;;;;;;10.94;100.00;100669.69;3578939;81;99255;-92
2022/01/01 06:29:48;;;;;;;10.20;5.07;;;;;;;10.81;100.00;100658.71;3574666;81;99007;-91
2022/01/01 06:34:49;;;;;;;8.93;3.50;;;;;;;10.81;100.00;100658.71;3581013;80;99239;-90
2022/01/01 06:39:50;;;;;;;11.40;3.57;;;;;;;10.92;100.00;100681.67;3559611;81;99129;-90
2022/01/01 06:44:51;;;;;;;6.97;3.17;;;;;;;10.88;100.00;100694.59;3589740;81;98986;-91
2022/01/01 06:49:52;;;;;;;10.23;3.93;;;;;;;10.87;100.00;100698.52;3581239;79;99103;-90
2022/01/01 06:54:53;;;;;;;9.27;3.50;;;;;;;10.88;100.00;100706.98;3595560;81;99316;-92
2022/01/01 06:59:53;;;;;;;8.55;3.77;;;;;;;10.88;100.00;100712.48;3588499;81;99464;-91
2022/01/01 07:04:56;;;;;;;8.63;4.57;;;;;;;10.86;100.00;100726.62;3586337;81;99397;-92
2022/01/01 07:09:58;;;;;;;13.10;4.62;;;;;;;10.87;100.00;100731.56;3582810;81;98944;-91
2022/01/01 07:14:58;;;;;;;8.03;3.40;;;;;;;10.88;100.00;100733.14;3587473;81;99065;-92
2022/01/01 07:19:59;;;;;;;10.33;3.63;;;;;;;10.87;100.00;100737.06;3569281;79;98883;-90
2022/01/01 07:25:00;;;;;;;8.03;3.73;;;;;;;10.86;100.00;100739.61;3549975;81;98302;-92
2022/01/01 07:30:03;;;;;;;15.40;5.10;;;;;;;10.84;100.00;100741.36;3584826;79;99124;-91
2022/01/01 07:35:05;;;;;;;9.43;4.00;;;;;;;10.84;100.00;100751.59;3586546;79;99672;-91
2022/01/01 07:40:11;;;;;;;10.50;4.15;;;;;;;10.85;100.00;100758.08;3582747;79;98983;-91
2022/01/01 07:45:13;;;;;;;9.23;4.10;;;;;;;10.83;100.00;100768.68;3593620;81;99116;-92
2022/01/01 07:50:14;;;;;;;6.67;2.70;;;;;;;10.83;100.00;100768.68;3581018;81;99361;-91
2022/01/01 07:55:15;;;;;;;5.53;2.47;;;;;;;10.82;100.00;100782.81;3591292;80;99078;-92
2022/01/01 08:00:16;;;;;;;7.10;3.33;;;;;;;10.78;100.00;100793.77;3578266;81;99003;-90
2022/01/01 08:05:18;;;;;;;5.90;2.40;;;;;;;10.77;100.00;100803.20;3592274;81;99468;-91
2022/01/01 08:10:20;;;;;;;9.23;3.07;;;;;;;10.74;100.00;100802.55;3586900;81;99594;-91
2022/01/01 08:15:21;;;;;;;6.72;2.90;;;;;;;10.76;100.00;100811.25;3583653;79;99234;-92
2022/01/01 08:20:22;;;;;;;8.80;3.27;;;;;;;10.76;100.00;100818.70;3583817;79;98958;-92
2022/01/01 08:25:24;;;;;;;8.77;3.00;;;;;;;10.78;100.00;100828.76;3595172;80;99586;-92
2022/01/01 08:30:25;;;;;;;9.53;3.10;;;;;;;10.75;100.00;100831.66;3571040;81;99181;-92
2022/01/01 08:35:28;;;;;;;7.00;3.20;;;;;;;10.76;100.00;100835.22;3595233;79;99056;-91
2022/01/01 08:40:29;;;;;;;10.40;3.47;;;;;;;10.77;100.00;100840.94;3571658;79;99147;-92
2022/01/01 08:45:30;;;;;;;8.75;3.05;;;;;;;10.77;100.00;100853.33;3566635;81;99290;-92
2022/01/01 08:50:32;;;;;;;8.33;3.13;;;;;;;10.77;100.00;100839.56;3558230;81;99047;-92
2022/01/01 08:55:33;;;;;;;8.57;3.60;;;;;;;10.76;100.00;100848.42;3560565;79;99150;-92
2022/01/01 09:00:33;;;;;;;13.00;3.60;;;;;;;10.79;100.00;100857.30;3568320;81;99232;-93
2022/01/01 09:05:34;;;;;;;9.57;3.53;;;;;;;10.82;100.00;100865.41;3555356;80;99650;-91
2022/01/01 09:10:35;;;;;;;11.30;5.13;;;;;;;10.82;100.00;100873.10;3560727;81;99592;-92
2022/01/01 09:15:36;;;;;;;8.90;4.03;;;;;;;10.82;100.00;100875.86;3563564;81;32986;-92
2022/01/01 09:20:37;;;;;;;8.60;3.70;;;;;;;10.86;100.00;100882.20;3555786;81;99251;-92
2022/01/01 09:25:38;;;;;;;9.43;3.63;;;;;;;10.87;100.00;100886.56;3567444;81;99396;-93
2022/01/01 09:30:39;;;;;;;8.03;3.70;;;;;;;10.91;100.00;100894.88;3562114;79;99042;-92
2022/01/01 09:35:41;;;;;;;9.17;3.63;;;;;;;10.94;100.00;100894.13;3568953;81;99382;-90
2022/01/01 09:40:42;;;;;;;6.23;3.00;;;;;;;10.98;100.00;100906.02;3578764;79;99560;-90
2022/01/01 09:45:43;;;;;;;8.80;2.97;;;;;;;10.99;100.00;100906.22;3596646;80;25929;-93
2022/01/01 09:50:47;;;;;;;5.27;2.57;;;;;;;11.00;100.00;100910.56;3595482;79;99302;-91
2022/01/01 09:55:48;;;;;;;6.17;2.30;;;;;;;11.02;100.00;100916.52;3595735;81;99440;-90
2022/01/01 10:00:50;;;;;;;7.63;2.40;;;;;;;11.05;100.00;100923.45;3583975;79;99402;-91
2022/01/01 10:06:02;;;;;;;5.60;2.87;;;;;;;11.07;100.00;100929.98;3593166;80;99554;-92
2022/01/01 10:11:03;;;;;;;5.23;2.00;;;;;;;11.09;100.00;100922.94;3588971;79;99372;-90
2022/01/01 10:16:07;;;;;;;4.62;2.25;;;;;;;11.13;100.00;100923.77;3587074;80;32021;-94
2022/01/01 10:21:12;;;;;;;6.75;3.25;;;;;;;11.20;100.00;100936.88;3584295;79;99228;-94
2022/01/01 10:32:03;;;;;;;8.13;2.67;;;;;;;11.21;100.00;100959.13;3585184;80;99146;-93
2022/01/01 10:37:06;;;;;;;8.40;3.70;;;;;;;11.20;100.00;100966.61;3573220;80;98784;-94
2022/01/01 10:42:12;;;;;;;5.50;2.45;;;;;;;11.23;100.00;100965.86;3567438;79;99027;-95
2022/01/01 10:47:28;;;;;;;7.58;3.30;;;;;;;11.27;100.00;100974.19;3597532;79;99018;-96
2022/01/01 10:52:30;;;;;;;7.60;3.20;;;;;;;11.30;100.00;100977.59;3593692;81;98814;-96
2022/01/01 10:57:41;;;;;;;8.67;3.53;;;;;;;11.32;100.00;100983.52;3597779;79;98312;-94
2022/01/01 11:02:51;;;;;;;8.13;3.90;;;;;;;11.32;100.00;100982.95;3590348;80;98905;-89
2022/01/01 11:07:52;;;;;;;8.33;3.50;;;;;;;11.31;100.00;100998.47;3600634;79;99371;-92
2022/01/01 11:12:55;;;;;;;8.63;3.45;;;;;;;11.31;100.00;100992.96;3593734;79;99430;-92
2022/01/01 11:17:58;;;;;;;6.97;3.00;;;;;;;11.35;100.00;100993.83;3588253;80;99583;-92
2022/01/01 11:23:08;;;;;;;15.50;7.20;;;;;;;11.32;100.00;100994.55;3587389;80;99478;-91
2022/01/01 11:28:17;;;;;;;10.95;3.85;;;;;;;11.27;100.00;100990.14;3586817;79;99243;-91
2022/01/01 11:33:31;;;;;;;6.87;2.67;;;;;;;11.31;100.00;100990.20;3586873;79;99534;-90
2022/01/01 11:38:36;;;;;;;6.73;2.83;;;;;;;11.33;100.00;100997.54;3585463;80;99254;-92
2022/01/01 11:43:51;;;;;;;7.75;3.72;;;;;;;11.35;100.00;100983.58;3598502;80;99452;-90
2022/01/01 11:49:03;;;;;;;5.67;2.93;;;;;;;11.37;100.00;100995.05;3579590;79;99340;-94
2022/01/01 11:54:33;;;;;;;6.58;3.20;;;;;;;11.36;100.00;100993.46;3565011;81;99071;-93
2022/01/01 11:59:44;;;;;;;6.50;3.22;;;;;;;11.36;100.00;101003.11;3580998;79;99152;-91
2022/01/01 12:04:49;;;;;;;25.75;13.65;;;;;;;11.42;100.00;101004.39;3589633;80;99424;-93
2022/01/01 12:10:05;;;;;;;12.33;4.40;;;;;;;11.45;100.00;101013.28;3563788;81;99073;-93
2022/01/01 12:15:12;;;;;;;8.23;4.12;;;;;;;11.44;100.00;101019.96;3581750;81;99436;-93
2022/01/01 12:20:21;;;;;;;;;;;;;;;11.47;100.00;101023.37;3585126;79;98879;-93
2022/01/01 12:25:32;;;;;;;6.50;2.60;;;;;;;11.46;100.00;101020.98;3585065;81;84525;-90
2022/01/01 12:30:51;;;;;;;4.47;2.75;;;;;;;11.50;100.00;101031.49;3576962;79;98934;-91
2022/01/01 12:35:56;;;;;;;5.07;2.40;;;;;;;11.56;100.00;101030.02;3589619;79;99100;-92
2022/01/01 12:41:05;;;;;;;3.72;1.90;;;;;;;11.58;100.00;101029.86;3582759;79;99081;-92
2022/01/01 12:46:08;;;;;;;2.77;1.47;;;;;;;11.58;100.00;101031.23;3583311;81;31557;-94
2022/01/01 12:51:13;;;;;;;6.00;3.10;;;;;;;11.55;100.00;101025.67;3578473;81;99060;-93
2022/01/01 12:56:16;;;;;;;3.30;1.82;;;;;;;11.54;100.00;101035.89;3588033;81;99267;-91
2022/01/01 13:01:21;;;;;;;3.22;1.62;;;;;;;11.57;100.00;101045.38;3573152;81;98978;-93
2022/01/01 13:06:37;;;;;;;3.95;1.92;;;;;;;11.55;100.00;101058.16;3582940;81;99411;-93
2022/01/01 13:11:39;;;;;;;3.85;1.87;;;;;;;11.54;100.00;101062.08;3574805;80;99425;-92
2022/01/01 13:16:42;;;;;;;6.60;3.33;;;;;;;11.58;100.00;101060.76;3586986;80;99449;-91
2022/01/01 13:21:43;;;;;;;3.75;1.90;;;;;;;11.59;100.00;101074.78;3582971;80;98558;-94
2022/01/01 13:26:45;;;;;;;4.33;2.47;;;;;;;11.61;100.00;101076.01;3585065;81;99324;-91
2022/01/01 13:31:47;;;;;;;4.70;2.40;;;;;;;11.60;100.00;101090.96;3578120;80;99492;-90
2022/01/01 13:36:48;;;;;;;5.93;2.90;;;;;;;11.59;100.00;101088.00;3575922;81;99565;-90
2022/01/01 13:41:58;;;;;;;7.07;2.90;;;;;;;11.60;100.00;101084.64;3608120;79;99418;-90
2022/01/01 13:47:05;;;;;;;4.53;1.77;;;;;;;11.58;100.00;101100.73;3641537;79;99108;-89
2022/01/01 13:52:08;;;;;;;8.80;3.67;;;;;;;11.51;100.00;101102.77;3629043;79;98893;-90
2022/01/01 13:57:09;;;;;;;8.97;6.30;;;;;;;11.49;100.00;101103.73;3642128;79;99272;-90
2022/01/01 14:02:13;;;;;;;11.93;7.30;;;;;;;11.49;100.00;101103.73;3640737;79;98963;-90
2022/01/01 14:07:17;;;;;;;9.88;6.42;;;;;;;11.47;100.00;101093.66;3635332;79;99631;-88
2022/01/01 14:12:18;;;;;;;10.20;6.10;;;;;;;11.46;100.00;101096.18;3635683;79;99103;-88
2022/01/01 14:17:20;;;;;;;9.90;4.47;;;;;;;11.44;100.00;101099.90;3646010;79;99591;-90
2022/01/01 14:22:28;;;;;;;10.45;5.05;;;;;;;11.40;100.00;101114.19;3632340;79;98787;-90
2022/01/01 14:27:29;;;;;;;6.78;4.10;;;;;;;11.35;100.00;101118.61;3633000;79;99007;-89
2022/01/01 14:32:31;;;;;;;8.07;3.87;;;;;;;11.31;100.00;101125.23;3633830;79;99368;-90
2022/01/01 14:37:32;;;;;;;7.28;4.08;;;;;;;11.28;100.00;101130.11;3639990;79;101189;-90
2022/01/01 14:42:33;;;;;;;9.50;5.78;;;;;;;11.26;100.00;101142.87;3600245;80;99661;-91
2022/01/01 14:47:52;;;;;;;10.37;5.90;;;;;;;11.23;100.00;101141.42;3581890;79;99061;-89
2022/01/01 14:53:03;;;;;;;10.82;5.53;;;;;;;11.20;100.00;101153.16;3545904;81;99287;-88
2022/01/01 14:58:07;;;;;;;7.80;3.62;;;;;;;11.15;100.00;101156.20;3586447;79;99270;-89
2022/01/01 15:03:08;;;;;;;9.00;4.17;;;;;;;11.09;100.00;101161.22;3582793;79;99001;-89
2022/01/01 15:08:12;;;;;;;10.27;4.03;;;;;;;11.04;100.00;101167.02;3592844;79;99166;-89
2022/01/01 15:13:14;;;;;;;8.70;4.70;;;;;;;10.98;100.00;101186.94;3594369;79;98776;-89
2022/01/01 15:18:17;;;;;;;13.03;6.92;;;;;;;10.97;100.00;101188.88;3589568;79;98981;-89
2022/01/01 15:23:26;;;;;;;11.67;6.70;;;;;;;10.96;100.00;101194.18;3597322;81;99810;-90
2022/01/01 15:28:29;;;;;;;12.65;6.83;;;;;;;10.98;100.00;101200.14;3579546;81;99209;-90
2022/01/01 15:33:33;;;;;;;11.53;4.50;;;;;;;10.95;100.00;101204.20;3595515;79;99256;-90
2022/01/01 15:38:42;;;;;;;11.47;5.43;;;;;;;10.89;100.00;101201.48;3576577;81;99497;-90
2022/01/01 15:43:40;;;;;;;13.28;7.17;;;;;;;10.88;100.00;101201.27;3584262;79;99871;-90
2022/01/01 15:48:41;;;;;;;17.33;10.10;;;;;;;10.87;100.00;101192.23;3577930;81;99661;-90
2022/01/01 15:53:42;;;;;;;16.43;10.30;;;;;;;10.87;100.00;101195.55;3511679;81;99438;-90
2022/01/01 15:58:58;;;;;;;40.57;18.87;;;;;;;10.87;100.00;101204.62;3593854;79;99781;-89
2022/01/01 16:04:56;;;;;;;25.37;13.05;;;;;;;10.87;100.00;101213.45;3613211;80;28323;-89
2022/01/01 16:10:04;;;;;;;;;;;;;;;10.89;100.00;101213.88;3589293;80;99009;-89
2022/01/01 16:15:08;;;;;;;20.27;9.95;;;;;;;10.85;100.00;101224.81;3590577;79;84420;-89
2022/01/01 16:20:10;;;;;;;19.37;10.10;;;;;;;10.83;100.00;101227.71;3586920;80;99612;-89
2022/01/01 16:25:13;;;;;;;16.45;9.73;;;;;;;10.83;100.00;101223.02;3448137;82;99682;-89
2022/01/01 16:30:16;;;;;;;16.40;7.87;;;;;;;10.83;100.00;101227.71;3586065;80;99554;-91
2022/01/01 16:35:18;;;;;;;9.65;4.87;;;;;;;10.82;100.00;101224.75;3591357;79;99262;-90
2022/01/01 16:40:18;;;;;;;10.43;6.03;;;;;;;10.74;100.00;101231.27;3595260;79;99157;-92
2022/01/01 16:45:22;;;;;;;12.47;7.47;;;;;;;10.72;100.00;101227.48;3604806;80;99064;-91
2022/01/01 16:50:23;;;;;;;11.97;8.43;;;;;;;10.76;100.00;101233.06;3600882;79;122554;-91
2022/01/01 16:55:31;;;;;;;14.57;9.50;;;;;;;10.77;100.00;101234.66;3607228;80;99308;-91
2022/01/01 17:00:45;;;;;;;16.52;10.95;;;;;;;10.76;100.00;101237.20;3588179;80;99648;-90
2022/01/01 17:05:49;;;;;;;17.20;11.22;;;;;;;10.76;100.00;101238.58;3604754;79;99773;-90
2022/01/01 17:10:51;;;;;;;22.27;14.47;;;;;;;10.79;100.00;101237.27;3598739;80;99134;-90
2022/01/01 17:16:36;;;;;;;25.52;14.58;;;;;;;10.82;100.00;101238.52;3593968;80;99107;-90
2022/01/01 17:21:45;;;;;;;47.00;27.10;;;;;;;10.82;100.00;101244.02;3593328;80;99602;-90
2022/01/01 17:26:50;;;;;;;45.88;28.02;;;;;;;10.78;100.00;101252.77;3586810;80;99513;-89
2022/01/01 17:31:52;;;;;;;33.95;22.15;;;;;;;10.84;100.00;101255.49;3595588;80;99653;-89
2022/01/01 17:42:04;;;;;;;37.55;22.70;;;;;;;10.85;100.00;101264.75;3590062;80;99506;-89
2022/01/01 17:47:11;;;;;;;33.50;20.40;;;;;;;10.82;100.00;101260.54;3584016;80;99468;-89
2022/01/01 17:52:16;;;;;;;;;;;;;;;10.78;100.00;101256.33;3561831;81;99387;-90
2022/01/01 17:57:21;;;;;;;28.38;16.20;;;;;;;10.78;100.00;101258.27;3582202;79;84768;-90
2022/01/01 18:02:22;;;;;;;33.35;19.30;;;;;;;10.73;100.00;101266.81;3576212;81;99190;-90
2022/01/01 18:07:39;;;;;;;30.87;19.47;;;;;;;10.69;100.00;101275.59;3570400;81;99419;-89
2022/01/01 18:12:47;;;;;;;31.30;18.87;;;;;;;10.69;100.00;101281.09;3574408;79;99374;-90
2022/01/01 18:17:52;;;;;;;29.83;18.37;;;;;;;10.80;100.00;101283.52;3574089;79;99436;-91
2022/01/01 18:23:04;;;;;;;33.02;18.52;;;;;;;10.88;100.00;101289.40;3578464;81;99373;-91
2022/01/01 18:28:20;;;;;;;35.80;19.95;;;;;;;10.98;100.00;101292.98;3582812;80;99632;-90
2022/01/01 18:33:21;;;;;;;34.65;20.60;;;;;;;10.90;100.00;101292.61;3577496;81;99403;-91
2022/01/01 18:38:24;;;;;;;55.17;28.43;;;;;;;10.79;100.00;101297.08;3581393;79;99362;-91
2022/01/01 18:43:29;;;;;;;31.63;21.10;;;;;;;10.84;100.00;101298.17;3590341;80;99354;-90
2022/01/01 18:48:30;;;;;;;45.78;25.48;;;;;;;10.77;100.00;101293.86;3570762;81;99444;-91
2022/01/01 18:53:33;;;;;;;40.53;24.03;;;;;;;10.76;100.00;101285.38;3575844;81;99361;-91
2022/01/01 18:58:37;;;;;;;40.65;24.80;;;;;;;10.67;100.00;101283.38;3580493;81;99470;-91
2022/01/01 19:03:41;;;;;;;43.42;27.62;;;;;;;10.68;100.00;101296.02;3586132;81;98471;-89
2022/01/01 19:08:46;;;;;;;44.18;23.60;;;;;;;10.70;100.00;101301.95;3555080;81;99580;-89
2022/01/01 19:13:50;;;;;;;40.13;25.17;;;;;;;10.67;100.00;101290.27;3587599;79;99705;-88
2022/01/01 19:18:52;;;;;;;37.35;22.48;;;;;;;10.60;100.00;101288.72;3574392;79;99792;-90
2022/01/01 19:23:55;;;;;;;38.45;22.35;;;;;;;10.62;100.00;101293.28;3585475;81;99448;-89
2022/01/01 19:29:00;;;;;;;47.55;27.93;;;;;;;10.59;100.00;101291.27;3595490;80;99775;-88
2022/01/01 19:34:02;;;;;;;52.70;31.45;;;;;;;10.50;100.00;101301.08;3585346;81;99047;-91
2022/01/01 19:39:08;;;;;;;40.15;26.17;;;;;;;10.51;100.00;101298.54;3580649;81;99563;-88
2022/01/01 19:44:33;;;;;;;43.70;27.80;;;;;;;10.56;100.00;101295.52;3543267;80;99735;-87
2022/01/01 19:49:46;;;;;;;49.73;30.40;;;;;;;10.57;100.00;101286.70;3493950;82;99822;-88
2022/01/01 19:54:47;;;;;;;45.33;26.60;;;;;;;10.57;100.00;101284.73;3588242;80;99756;-88
2022/01/01 19:59:49;;;;;;;51.00;28.37;;;;;;;10.51;100.00;101284.78;3509287;82;99313;-90
2022/01/01 20:04:50;;;;;;;41.90;23.70;;;;;;;10.53;100.00;101289.94;3618317;80;29727;-88
2022/01/01 20:14:54;;;;;;;36.80;22.67;;;;;;;10.56;100.00;101287.27;3808804;74;26146;-87
2022/01/01 20:19:55;;;;;;;38.50;21.20;;;;;;;10.51;100.00;101293.59;3701912;77;101209;-89
2022/01/01 20:24:56;;;;;;;33.63;22.80;;;;;;;10.55;100.00;101294.50;3674786;78;99528;-89
2022/01/01 20:30:01;;;;;;;30.30;19.50;;;;;;;10.46;100.00;101294.67;3617280;79;99375;-89
2022/01/01 20:35:03;;;;;;;33.92;24.07;;;;;;;10.44;100.00;101307.19;3619242;81;31678;-89
2022/01/01 20:40:07;;;;;;;32.67;20.80;;;;;;;10.39;100.00;101301.95;3644678;79;99662;-88
2022/01/01 20:45:09;;;;;;;27.55;16.75;;;;;;;10.35;100.00;101294.20;3661641;79;99640;-89
2022/01/01 20:50:13;;;;;;;34.33;17.90;;;;;;;10.28;100.00;101293.44;3634684;79;99879;-89
2022/01/01 20:55:17;;;;;;;25.25;16.05;;;;;;;10.32;100.00;101301.77;3638452;80;99482;-88
2022/01/01 21:00:18;;;;;;;31.77;19.63;;;;;;;10.29;100.00;101300.53;3699815;78;99797;-89
2022/01/01 21:05:20;;;;;;;28.63;18.90;;;;;;;10.27;100.00;101298.72;3698425;78;99409;-88
2022/01/01 21:10:21;;;;;;;30.23;17.80;;;;;;;10.25;100.00;101299.62;3647669;79;99319;-88
2022/01/01 21:15:24;;;;;;;27.40;16.33;;;;;;;10.27;100.00;101303.41;3689153;78;99168;-88
2022/01/01 21:20:25;;;;;;;29.05;15.38;;;;;;;10.24;100.00;101306.29;3599780;80;100004;-89
2022/01/01 21:25:29;;;;;;;26.93;15.67;;;;;;;10.19;100.00;101303.02;3688352;78;99923;-88
2022/01/01 21:30:33;;;;;;;29.32;16.52;;;;;;;10.21;100.00;101290.51;3670208;79;99838;-88
2022/01/01 21:35:35;;;;;;;41.33;19.42;;;;;;;10.27;100.00;101288.28;3621671;80;99429;-88
2022/01/01 21:40:36;;;;;;;31.77;17.50;;;;;;;10.31;100.00;101284.45;3706408;79;99473;-88
2022/01/01 21:45:43;;;;;;;34.13;20.30;;;;;;;10.33;100.00;101267.59;3703683;79;99201;-87
2022/01/01 21:50:45;;;;;;;35.13;20.00;;;;;;;10.33;100.00;101260.72;3701613;78;99716;-87
2022/01/01 21:55:47;;;;;;;35.10;18.87;;;;;;;10.33;100.00;101251.09;3701347;79;99838;-88
2022/01/01 22:00:50;;;;;;;48.15;22.90;;;;;;;10.33;100.00;101238.70;3689525;79;99731;-89
2022/01/01 22:05:51;;;;;;;50.55;22.62;;;;;;;10.31;100.00;101232.77;3694119;78;99463;-89
2022/01/01 22:10:53;;;;;;;45.77;22.60;;;;;;;10.27;100.00;101223.06;3730495;76;99206;-89
2022/01/01 22:15:54;;;;;;;40.63;21.85;;;;;;;10.29;100.00;101229.56;3732527;77;99227;-88
2022/01/01 22:20:57;;;;;;;42.23;21.33;;;;;;;10.30;100.00;101220.17;3728385;77;99859;-88
2022/01/01 22:25:58;;;;;;;43.52;22.58;;;;;;;10.30;100.00;101220.17;3733152;77;99677;-88
2022/01/01 22:30:59;;;;;;;44.67;22.93;;;;;;;10.29;100.00;101211.67;3729917;77;99567;-88
2022/01/01 22:36:02;;;;;;;41.60;23.50;;;;;;;10.30;100.00;101207.20;3731769;77;99824;-88
2022/01/01 22:41:05;;;;;;;43.68;23.90;;;;;;;10.30;100.00;101201.70;3721051;77;99313;-89
2022/01/01 22:46:08;;;;;;;47.33;23.60;;;;;;;10.30;100.00;101201.70;3732774;77;99350;-89
2022/01/01 22:51:09;;;;;;;48.83;24.95;;;;;;;10.31;100.00;101194.25;3697104;77;99776;-89
2022/01/01 22:56:11;;;;;;;46.50;23.83;;;;;;;10.31;100.00;101196.41;3713179;77;99878;-88
2022/01/01 23:01:25;;;;;;;46.18;24.90;;;;;;;10.31;100.00;101182.65;3720547;77;99685;-90
2022/01/01 23:06:26;;;;;;;45.65;22.48;;;;;;;10.28;100.00;101166.06;3711492;77;99844;-91
2022/01/01 23:11:27;;;;;;;42.97;23.40;;;;;;;10.27;100.00;101158.97;3711407;78;99406;-89
2022/01/01 23:16:31;;;;;;;44.67;24.95;;;;;;;10.25;100.00;101152.44;3701705;79;32266;-90
2022/01/01 23:21:35;;;;;;;51.70;26.05;;;;;;;10.22;100.00;101157.86;3728820;77;99526;-93